Terminal Aerodrome Forecast
Issued by NWS

Home | Current Version | Previous Version | Text Only | Print | Product List | Glossary On
Versions: 1 2 3 4 5 6 7 8 9 10 11 12 13 14 15
605
FTUS45 KGGW 230520
TAFSDY
TAF
KSDY 230520Z 2306/2406 VRB03KT P6SM FEW220
     FM230800 VRB03KT P6SM FEW240 WS020/28030KT
     FM231300 23007KT 4SM BR BKN035 WS020/28040KT
     FM231800 23010KT P6SM BKN040
     FM240300 24009KT P6SM FEW110 WS020/26045KT=

USA.gov is the U.S. government's official web portal to all federal, state and local government web resources and services.